F/V J. Louis Vincent — FQBL — position and weather

sailwx.info

Track history (hours):
 
Tides and Currents Weather Stations Pressure Air Temp Water Temp Dewpoint Dewpoint Depression Visibility Wind Speed Wind Dir Waves Ship Positions

F/V J. Louis Vincent

Last reported at 2014-Sep-22 05:31 UTC. Time now 2014-Sep-22 06:15 UTC.
Position N 43°16' E 004°19'.

Length 29 m.

Type: Fishing. MMSI: 227146600.

Date/timePositionNaut miles runAvg speedWind from/ knotsBaromVisibWave heightAir tempDewpointWater temp
2014-Sep-22 05:31N 43°16' E 004°19'4 4.5
2014-Sep-22 04:33N 43°18' E 004°14'5 4.5
2014-Sep-22 03:33N 43°20' E 004°08'5 4.4
2014-Sep-22 02:31N 43°22' E 004°02'  
2014-Sep-19 14:32N 43°23' E 003°46'7 6.5
2014-Sep-19 13:25N 43°20' E 003°55'4 3.4
2014-Sep-19 12:10N 43°19' E 004°01'6 3.4
2014-Sep-19 10:28N 43°17' E 004°08'4 4.6
2014-Sep-19 09:33N 43°15' E 004°13'6 4.5
2014-Sep-19 08:18N 43°10' E 004°17'4 4.1
2014-Sep-19 07:13N 43°06' E 004°21'2 2.8
2014-Sep-19 06:24N 43°07' E 004°18'6 4.5
2014-Sep-19 05:06N 43°11' E 004°12'25 2.1
2014-Sep-18 17:09N 43°24' E 003°42'0 0.0
2014-Sep-18 16:34N 43°24' E 003°42'27 4.6
2014-Sep-18 10:33N 42°59' E 003°56'6 4.3
2014-Sep-18 09:12N 42°59' E 004°04'8 4.6
2014-Sep-18 07:33N 42°58' E 004°14'2 2.2
2014-Sep-18 06:27N 42°59' E 004°11'33 2.5
2014-Sep-17 17:33N 43°24' E 003°42'0 0.2
2014-Sep-17 16:22N 43°24' E 003°42'8 9.3
2014-Sep-17 15:29N 43°17' E 003°48'12 8.8
2014-Sep-17 14:04N 43°05' E 003°54'2 4.5
2014-Sep-17 13:34N 43°03' E 003°55'5 4.4
2014-Sep-17 12:27N 43°01' E 004°01'7 3.7
2014-Sep-17 10:28N 42°59' E 004°11'4 4.4
2014-Sep-17 09:27N 42°59' E 004°17'4 4.4
2014-Sep-17 08:33N 42°58' E 004°22'4 3.5
2014-Sep-17 07:28N 42°59' E 004°27'18 0.9
2014-Sep-16 12:15N 42°60' E 004°03'5 4.7
2014-Sep-16 11:10N 42°59' E 004°10'11 3.9
2014-Sep-16 08:25N 42°54' E 004°22'4 3.7
2014-Sep-16 07:24N 42°51' E 004°24'6 0.2
2014-Sep-15 05:23N 42°56' E 004°21'15 6.6
2014-Sep-15 03:05N 43°06' E 004°06'  
2014-Sep-12 15:33N 43°24' E 003°42'0 0.3
2014-Sep-12 14:29N 43°24' E 003°42'42 8.1
2014-Sep-12 09:19N 42°52' E 004°19'  
Track history (hours):
 
Tides and Currents Weather Stations Pressure Air Temp Water Temp Dewpoint Dewpoint Depression Visibility Wind Speed Wind Dir Waves Ship Positions

F/V J. Louis Vincent

Last reported at 2014-Sep-22 05:31 UTC. Time now 2014-Sep-22 06:15 UTC.
Position N 43°16' E 004°19'.

Length 29 m.

Type: Fishing. MMSI: 227146600.

Date/timePositionNaut miles runAvg speedWind from/ knotsBaromVisibWave heightAir tempDewpointWater temp
2014-Sep-22 05:31N 43°16' E 004°19'4 4.5
2014-Sep-22 04:33N 43°18' E 004°14'5 4.5
2014-Sep-22 03:33N 43°20' E 004°08'5 4.4
2014-Sep-22 02:31N 43°22' E 004°02'  
2014-Sep-19 14:32N 43°23' E 003°46'7 6.5
2014-Sep-19 13:25N 43°20' E 003°55'4 3.4
2014-Sep-19 12:10N 43°19' E 004°01'6 3.4
2014-Sep-19 10:28N 43°17' E 004°08'4 4.6
2014-Sep-19 09:33N 43°15' E 004°13'6 4.5
2014-Sep-19 08:18N 43°10' E 004°17'4 4.1
2014-Sep-19 07:13N 43°06' E 004°21'2 2.8
2014-Sep-19 06:24N 43°07' E 004°18'6 4.5
2014-Sep-19 05:06N 43°11' E 004°12'25 2.1
2014-Sep-18 17:09N 43°24' E 003°42'0 0.0
2014-Sep-18 16:34N 43°24' E 003°42'27 4.6
2014-Sep-18 10:33N 42°59' E 003°56'6 4.3
2014-Sep-18 09:12N 42°59' E 004°04'8 4.6
2014-Sep-18 07:33N 42°58' E 004°14'2 2.2
2014-Sep-18 06:27N 42°59' E 004°11'33 2.5
2014-Sep-17 17:33N 43°24' E 003°42'0 0.2
2014-Sep-17 16:22N 43°24' E 003°42'8 9.3
2014-Sep-17 15:29N 43°17' E 003°48'12 8.8
2014-Sep-17 14:04N 43°05' E 003°54'2 4.5
2014-Sep-17 13:34N 43°03' E 003°55'5 4.4
2014-Sep-17 12:27N 43°01' E 004°01'7 3.7
2014-Sep-17 10:28N 42°59' E 004°11'4 4.4
2014-Sep-17 09:27N 42°59' E 004°17'4 4.4
2014-Sep-17 08:33N 42°58' E 004°22'4 3.5
2014-Sep-17 07:28N 42°59' E 004°27'18 0.9
2014-Sep-16 12:15N 42°60' E 004°03'5 4.7
2014-Sep-16 11:10N 42°59' E 004°10'11 3.9
2014-Sep-16 08:25N 42°54' E 004°22'4 3.7
2014-Sep-16 07:24N 42°51' E 004°24'6 0.2
2014-Sep-15 05:23N 42°56' E 004°21'15 6.6
2014-Sep-15 03:05N 43°06' E 004°06'  
2014-Sep-12 15:33N 43°24' E 003°42'0 0.3
2014-Sep-12 14:29N 43°24' E 003°42'42 8.1
2014-Sep-12 09:19N 42°52' E 004°19'  

Dump ship's entire track history